createdAt,value
2023-05-05T00:01:53.324Z,13.26
2023-05-05T00:04:22.765Z,12.75
2023-05-05T00:06:50.647Z,12.98
2023-05-05T00:09:17.830Z,13.02
2023-05-05T00:11:45.222Z,13.01
2023-05-05T00:14:12.107Z,12.90
2023-05-05T00:16:39.139Z,12.87
2023-05-05T00:19:06.803Z,12.82
2023-05-05T00:21:33.768Z,12.81
2023-05-05T00:24:00.795Z,12.72
2023-05-05T00:26:27.739Z,12.46
2023-05-05T00:28:54.987Z,12.56
2023-05-05T00:31:21.815Z,12.43
2023-05-05T00:33:49.157Z,12.39
2023-05-05T00:36:16.031Z,12.24
2023-05-05T00:38:43.717Z,11.97
2023-05-05T00:41:10.582Z,12.12
2023-05-05T00:43:37.427Z,11.93
2023-05-05T00:46:14.409Z,12.03
2023-05-05T00:48:42.114Z,12.04
2023-05-05T00:51:10.379Z,11.94
2023-05-05T00:53:39.782Z,12.00
2023-05-05T00:56:07.140Z,11.97
2023-05-05T00:58:34.599Z,11.95
2023-05-05T01:01:01.590Z,11.85
2023-05-05T01:03:28.925Z,11.80
2023-05-05T01:06:10.635Z,11.75
2023-05-05T01:09:02.200Z,11.79
2023-05-05T01:11:38.047Z,11.67
2023-05-05T01:14:21.581Z,11.60
2023-05-05T01:16:58.324Z,11.46
2023-05-05T01:19:34.026Z,11.33
2023-05-05T01:22:03.957Z,11.53
2023-05-05T01:24:43.088Z,11.51
2023-05-05T01:27:39.740Z,11.32
2023-05-05T01:30:27.664Z,11.34
2023-05-05T01:33:00.883Z,11.24
2023-05-05T01:35:31.885Z,11.23
2023-05-05T01:38:16.803Z,11.02
2023-05-05T01:40:48.914Z,11.20
2023-05-05T01:43:19.594Z,11.13
2023-05-05T01:45:48.171Z,11.06
2023-05-05T01:48:18.427Z,11.07
2023-05-05T01:50:48.415Z,10.95
2023-05-05T01:53:17.664Z,10.90
2023-05-05T01:55:46.913Z,10.95
2023-05-05T01:58:16.061Z,10.97
2023-05-05T02:00:44.599Z,10.89
2023-05-05T02:03:15.474Z,10.91
2023-05-05T02:05:44.624Z,10.78
2023-05-05T02:08:12.294Z,10.71
2023-05-05T02:10:43.592Z,10.52
2023-05-05T02:13:13.101Z,10.53
2023-05-05T02:15:42.138Z,10.52
2023-05-05T02:18:10.057Z,10.51
2023-05-05T02:20:39.527Z,10.44
2023-05-05T02:23:08.081Z,10.23
2023-05-05T02:25:45.385Z,10.40
2023-05-05T02:28:18.511Z,10.33
2023-05-05T02:30:51.455Z,10.12
2023-05-05T02:33:22.071Z,10.29
2023-05-05T02:35:52.082Z,10.22
2023-05-05T02:38:23.915Z,10.23
2023-05-05T02:40:53.284Z,10.11
2023-05-05T02:43:23.648Z,9.75
2023-05-05T02:45:50.772Z,10.09
2023-05-05T02:48:18.036Z,10.15
2023-05-05T02:50:44.973Z,10.06
2023-05-05T02:53:12.331Z,9.55
2023-05-05T02:55:53.769Z,9.99
2023-05-05T02:58:29.172Z,9.92
2023-05-05T03:01:26.889Z,10.01
2023-05-05T03:04:17.627Z,9.89
2023-05-05T03:06:49.160Z,9.90
2023-05-05T03:09:25.766Z,9.83
2023-05-05T03:12:04.592Z,9.77
2023-05-05T03:14:37.203Z,9.72
2023-05-05T03:17:05.541Z,9.65
2023-05-05T03:19:34.550Z,9.63
2023-05-05T03:22:04.311Z,9.63
2023-05-05T03:24:31.150Z,9.60
2023-05-05T03:26:57.967Z,9.54
2023-05-05T03:29:25.518Z,9.45
2023-05-05T03:31:52.665Z,9.50
2023-05-05T03:34:19.640Z,9.48
2023-05-05T03:36:46.613Z,9.52
2023-05-05T03:39:13.475Z,9.49
2023-05-05T03:41:40.437Z,9.37
2023-05-05T03:44:07.459Z,9.54
2023-05-05T03:46:34.390Z,9.48
2023-05-05T03:49:01.295Z,9.54
2023-05-05T03:51:28.294Z,9.53
2023-05-05T03:53:55.451Z,9.30
2023-05-05T03:56:22.374Z,9.64
2023-05-05T03:58:49.330Z,9.64
2023-05-05T04:01:16.362Z,9.47
2023-05-05T04:03:43.304Z,9.67
2023-05-05T04:06:10.294Z,9.76
2023-05-05T04:08:37.264Z,9.82
2023-05-05T04:11:04.160Z,9.87
2023-05-05T04:13:31.171Z,9.95
2023-05-05T04:15:59.782Z,9.83
2023-05-05T04:18:26.782Z,10.09
2023-05-05T04:20:53.690Z,10.17
2023-05-05T04:23:20.721Z,10.28
2023-05-05T04:25:48.130Z,10.16
2023-05-05T04:28:15.110Z,10.17
2023-05-05T04:30:42.058Z,10.25
2023-05-05T04:33:08.969Z,10.24
2023-05-05T04:35:36.028Z,10.13
2023-05-05T04:38:02.865Z,10.17
2023-05-05T04:40:29.961Z,10.34
2023-05-05T04:42:56.854Z,10.35
2023-05-05T04:45:23.737Z,10.45
2023-05-05T04:47:50.920Z,10.47
2023-05-05T04:50:18.046Z,10.04
2023-05-05T04:52:45.127Z,10.50
2023-05-05T04:55:12.205Z,10.48
2023-05-05T04:57:39.250Z,10.48
2023-05-05T05:00:07.875Z,10.55
2023-05-05T05:02:35.902Z,10.61
2023-05-05T05:05:02.878Z,10.73
2023-05-05T05:07:29.812Z,10.75
2023-05-05T05:09:56.741Z,10.85
2023-05-05T05:12:23.991Z,10.98
2023-05-05T05:14:51.870Z,10.90
2023-05-05T05:17:20.670Z,11.15
2023-05-05T05:19:47.562Z,11.17
2023-05-05T05:22:14.770Z,11.25
2023-05-05T05:24:42.391Z,11.23
2023-05-05T05:27:10.291Z,11.35
2023-05-05T05:29:37.378Z,11.41
2023-05-05T05:32:04.478Z,11.17
2023-05-05T05:34:31.686Z,11.56
2023-05-05T05:36:58.626Z,11.57
2023-05-05T05:39:25.512Z,11.26
2023-05-05T05:41:52.695Z,11.07
2023-05-05T05:44:19.884Z,11.91
2023-05-05T05:46:46.755Z,11.88
2023-05-05T05:49:14.136Z,12.22
2023-05-05T05:51:41.433Z,12.35
2023-05-05T05:54:08.465Z,12.31
2023-05-05T05:56:35.395Z,12.64
2023-05-05T05:59:04.578Z,12.73
2023-05-05T06:01:31.734Z,12.87
2023-05-05T06:03:58.766Z,13.04
2023-05-05T06:06:25.750Z,13.16
2023-05-05T06:08:53.425Z,13.39
2023-05-05T06:11:20.675Z,13.37
2023-05-05T06:13:47.489Z,13.53
2023-05-05T06:16:14.396Z,13.66
2023-05-05T06:18:41.425Z,13.70
2023-05-05T06:21:08.465Z,13.58
2023-05-05T06:23:35.988Z,13.75
2023-05-05T06:26:03.475Z,13.51
2023-05-05T06:28:30.497Z,13.47
2023-05-05T06:30:57.335Z,14.05
2023-05-05T06:33:24.737Z,14.22
2023-05-05T06:35:52.438Z,14.28
2023-05-05T06:38:20.128Z,14.27
2023-05-05T06:40:50.241Z,14.29
2023-05-05T06:43:18.056Z,14.32
2023-05-05T06:45:45.500Z,14.40
2023-05-05T06:48:12.652Z,14.50
2023-05-05T06:50:40.093Z,14.40
2023-05-05T06:53:07.077Z,14.72
2023-05-05T06:55:34.044Z,14.93
2023-05-05T06:58:01.024Z,15.04
2023-05-05T07:00:39.765Z,15.10
2023-05-05T07:03:07.125Z,15.07
2023-05-05T07:05:34.174Z,15.01
2023-05-05T07:08:01.522Z,15.21
2023-05-05T07:10:28.832Z,15.34
2023-05-05T07:12:55.958Z,15.53
2023-05-05T07:15:27.701Z,15.47
2023-05-05T07:17:56.673Z,15.54
2023-05-05T07:20:24.325Z,15.35
2023-05-05T07:22:51.462Z,15.74
2023-05-05T07:25:18.637Z,15.63
2023-05-05T07:27:45.955Z,15.80
2023-05-05T07:30:16.517Z,15.90
2023-05-05T07:32:44.409Z,15.99
2023-05-05T07:35:11.552Z,15.99
2023-05-05T07:37:38.462Z,15.84
2023-05-05T07:40:06.587Z,16.03
2023-05-05T07:42:33.734Z,16.18
2023-05-05T07:45:00.856Z,16.36
2023-05-05T07:47:31.276Z,16.43
2023-05-05T07:49:58.367Z,16.92
2023-05-05T07:52:43.672Z,16.75
2023-05-05T07:55:13.189Z,16.50
2023-05-05T07:57:40.362Z,16.59
2023-05-05T08:00:08.150Z,16.35
2023-05-05T08:02:35.545Z,16.78
2023-05-05T08:05:02.530Z,17.01
2023-05-05T08:07:29.397Z,17.03
2023-05-05T08:09:56.348Z,16.89
2023-05-05T08:12:23.410Z,17.00
2023-05-05T08:14:50.904Z,16.60
2023-05-05T08:17:17.883Z,17.45
2023-05-05T08:19:44.857Z,17.31
2023-05-05T08:22:11.979Z,17.75
2023-05-05T08:24:38.923Z,18.08
2023-05-05T08:27:05.930Z,18.44
2023-05-05T08:29:32.921Z,18.28
2023-05-05T08:31:59.874Z,18.81
2023-05-05T08:34:26.907Z,18.52
2023-05-05T08:36:53.916Z,18.97
2023-05-05T08:39:21.108Z,19.55
2023-05-05T08:41:48.470Z,19.55
2023-05-05T08:44:15.723Z,20.11
2023-05-05T08:46:42.968Z,20.41
2023-05-05T08:49:15.287Z,20.93
2023-05-05T08:51:43.313Z,21.29
2023-05-05T08:54:18.041Z,22.13
2023-05-05T08:56:47.090Z,22.72
2023-05-05T08:59:15.834Z,23.38
2023-05-05T09:01:45.133Z,23.05
2023-05-05T09:04:12.656Z,23.40
2023-05-05T09:06:49.207Z,23.93
2023-05-05T09:09:20.276Z,23.95
2023-05-05T09:11:47.903Z,23.24
2023-05-05T09:16:59.768Z,24.17
2023-05-05T09:19:26.763Z,23.33
2023-05-05T09:22:13.947Z,23.47
2023-05-05T09:24:55.312Z,24.05
2023-05-05T09:27:23.505Z,23.38
2023-05-05T09:29:51.158Z,23.05
2023-05-05T09:32:18.653Z,22.86
2023-05-05T09:34:58.100Z,23.18
2023-05-05T09:37:31.915Z,24.28
2023-05-05T09:40:01.239Z,23.99
2023-05-05T09:42:28.351Z,24.43
2023-05-05T09:44:56.834Z,23.93
2023-05-05T09:47:35.067Z,23.85
2023-05-05T09:50:02.725Z,23.72
2023-05-05T09:52:30.866Z,24.44
2023-05-05T09:54:57.893Z,24.57
2023-05-05T09:57:30.332Z,24.02
2023-05-05T10:00:01.823Z,25.53
2023-05-05T10:02:36.775Z,25.44
2023-05-05T10:05:08.467Z,25.34
2023-05-05T10:07:37.003Z,24.74
2023-05-05T10:10:09.377Z,24.40
2023-05-05T10:12:37.835Z,26.03
2023-05-05T10:15:06.741Z,25.44
2023-05-05T10:17:38.206Z,25.25
2023-05-05T10:20:10.669Z,24.87
2023-05-05T10:22:39.599Z,25.87
2023-05-05T10:25:11.333Z,26.56
2023-05-05T10:27:44.912Z,26.00
2023-05-05T10:30:24.565Z,26.38
2023-05-05T10:33:13.106Z,26.00
2023-05-05T10:35:45.838Z,26.82
2023-05-05T10:38:13.259Z,28.17
2023-05-05T10:40:45.628Z,28.59
2023-05-05T10:43:14.641Z,28.11
2023-05-05T10:45:43.036Z,28.98
2023-05-05T10:48:18.912Z,27.94
2023-05-05T10:50:56.871Z,27.46
2023-05-05T10:53:28.870Z,27.55
2023-05-05T10:56:17.385Z,27.31
2023-05-05T10:58:59.244Z,28.24
2023-05-05T11:01:30.863Z,27.56
2023-05-05T11:04:17.212Z,27.08
2023-05-05T11:07:11.850Z,26.92
2023-05-05T11:10:04.324Z,28.17
2023-05-05T11:12:32.792Z,28.73
2023-05-05T11:15:27.619Z,28.55
2023-05-05T11:17:56.298Z,27.68
2023-05-05T11:20:48.876Z,26.91
2023-05-05T11:23:22.737Z,27.84
2023-05-05T11:25:51.531Z,27.01
2023-05-05T11:28:19.990Z,26.70
2023-05-05T11:30:56.426Z,27.88
2023-05-05T11:33:31.090Z,27.59
2023-05-05T11:36:00.360Z,28.87
2023-05-05T11:38:36.604Z,28.98
2023-05-05T11:41:09.548Z,30.01
2023-05-05T11:43:36.756Z,28.60
2023-05-05T11:46:13.706Z,28.80
2023-05-05T11:48:52.864Z,29.60
2023-05-05T11:51:19.851Z,30.22
2023-05-05T11:53:48.443Z,31.07
2023-05-05T11:56:19.359Z,30.64
2023-05-05T11:58:46.991Z,29.37
2023-05-05T12:01:14.955Z,29.18
2023-05-05T12:03:42.462Z,29.28
2023-05-05T12:06:09.382Z,28.88
2023-05-05T12:08:40.999Z,29.11
2023-05-05T12:11:10.172Z,29.79
2023-05-05T12:13:37.716Z,30.01
2023-05-05T12:16:11.195Z,31.04
2023-05-05T12:18:38.889Z,31.36
2023-05-05T12:21:19.390Z,31.44
2023-05-05T12:23:46.903Z,30.70
2023-05-05T12:26:27.972Z,31.27
2023-05-05T12:28:56.319Z,31.72
2023-05-05T12:31:23.501Z,30.00
2023-05-05T12:33:50.833Z,29.85
2023-05-05T12:36:18.089Z,30.36
2023-05-05T12:38:47.871Z,29.56
2023-05-05T12:41:19.774Z,30.10
2023-05-05T12:43:47.718Z,29.63
2023-05-05T12:46:14.786Z,29.09
2023-05-05T12:48:48.112Z,28.59
2023-05-05T12:51:20.859Z,28.70
2023-05-05T12:53:49.897Z,29.15
2023-05-05T12:56:42.332Z,29.01
2023-05-05T12:59:11.609Z,30.23
2023-05-05T13:01:52.560Z,28.59
2023-05-05T13:04:21.068Z,28.37
2023-05-05T13:06:49.678Z,29.74
2023-05-05T13:09:34.016Z,28.75
2023-05-05T13:12:03.146Z,28.86
2023-05-05T13:14:31.975Z,28.41
2023-05-05T13:16:59.494Z,29.25
2023-05-05T13:19:27.604Z,27.56
2023-05-05T13:21:55.692Z,28.93
2023-05-05T13:24:34.436Z,27.93
2023-05-05T13:27:05.740Z,28.10
2023-05-05T13:29:33.655Z,29.51
2023-05-05T13:32:01.036Z,30.30
2023-05-05T13:34:28.337Z,30.20
2023-05-05T13:36:55.337Z,30.37
2023-05-05T13:39:22.715Z,31.18
2023-05-05T13:41:49.675Z,30.74
2023-05-05T13:44:16.756Z,30.89
2023-05-05T13:46:44.342Z,28.32
2023-05-05T13:49:11.331Z,29.54
2023-05-05T13:51:39.054Z,30.56
2023-05-05T13:54:07.079Z,30.79
2023-05-05T13:56:34.687Z,30.81
2023-05-05T13:59:02.524Z,31.15
2023-05-05T14:01:30.316Z,30.63
2023-05-05T14:03:57.989Z,29.82
2023-05-05T14:06:26.082Z,30.94
2023-05-05T14:08:53.541Z,31.77
2023-05-05T14:11:20.719Z,32.18
2023-05-05T14:13:48.170Z,30.93
2023-05-05T14:16:15.311Z,31.09
2023-05-05T14:18:43.222Z,30.25
2023-05-05T14:21:10.613Z,30.42
2023-05-05T14:23:37.556Z,31.39
2023-05-05T14:26:04.432Z,32.62
2023-05-05T14:28:44.558Z,32.69
2023-05-05T14:31:11.611Z,31.48
2023-05-05T14:33:38.428Z,31.63
2023-05-05T14:36:05.865Z,31.72
2023-05-05T14:38:32.881Z,31.52
2023-05-05T14:41:00.131Z,31.41
2023-05-05T14:43:27.087Z,31.34
2023-05-05T14:45:54.090Z,32.35
2023-05-05T14:48:22.487Z,32.57
2023-05-05T14:50:50.084Z,32.88
2023-05-05T14:53:18.984Z,32.93
2023-05-05T14:55:46.172Z,33.08
2023-05-05T14:58:13.117Z,31.93
2023-05-05T15:00:39.958Z,32.44
2023-05-05T15:03:07.141Z,31.74
2023-05-05T15:05:34.285Z,31.10
2023-05-05T15:08:01.192Z,31.05
2023-05-05T15:10:28.193Z,30.79
2023-05-05T15:12:55.114Z,31.72
2023-05-05T15:15:22.391Z,32.16
2023-05-05T15:17:49.266Z,32.06
2023-05-05T15:20:16.263Z,29.25
2023-05-05T15:22:43.098Z,30.55
2023-05-05T15:25:12.409Z,31.35
2023-05-05T15:27:40.596Z,31.86
2023-05-05T15:30:07.970Z,31.62
2023-05-05T15:32:34.973Z,31.04
2023-05-05T15:35:01.980Z,31.58
2023-05-05T15:37:29.071Z,30.61
2023-05-05T15:39:56.487Z,30.62
2023-05-05T15:42:23.481Z,30.58
2023-05-05T15:44:51.281Z,30.67
2023-05-05T15:47:18.696Z,29.88
2023-05-05T15:49:45.622Z,29.21
2023-05-05T15:52:12.900Z,27.76
2023-05-05T15:54:39.911Z,27.75
2023-05-05T15:57:06.870Z,27.87
2023-05-05T15:59:41.394Z,27.25
2023-05-05T16:02:08.341Z,26.23
2023-05-05T16:04:35.746Z,26.21
2023-05-05T16:07:03.413Z,25.89
2023-05-05T16:09:30.487Z,25.48
2023-05-05T16:11:57.413Z,25.65
2023-05-05T16:14:24.704Z,25.48
2023-05-05T16:16:51.558Z,25.64
2023-05-05T16:19:18.735Z,25.51
2023-05-05T16:21:45.757Z,25.72
2023-05-05T16:24:16.516Z,25.55
2023-05-05T16:26:43.737Z,25.54
2023-05-05T16:29:11.509Z,25.28
2023-05-05T16:31:38.662Z,25.04
2023-05-05T16:34:05.780Z,25.29
2023-05-05T16:36:32.729Z,24.97
2023-05-05T16:38:59.565Z,24.95
2023-05-05T16:41:26.856Z,24.97
2023-05-05T16:43:53.896Z,24.99
2023-05-05T16:46:21.105Z,24.82
2023-05-05T16:48:47.983Z,24.50
2023-05-05T16:51:14.836Z,24.29
2023-05-05T16:53:41.856Z,24.08
2023-05-05T16:56:11.825Z,24.01
2023-05-05T16:58:39.893Z,23.75
2023-05-05T17:01:06.965Z,23.67
2023-05-05T17:03:33.855Z,23.65
2023-05-05T17:06:00.842Z,23.57
2023-05-05T17:08:27.885Z,23.40
2023-05-05T17:10:54.771Z,23.54
2023-05-05T17:13:23.516Z,23.54
2023-05-05T17:15:50.944Z,23.75
2023-05-05T17:18:21.148Z,24.01
2023-05-05T17:20:49.975Z,23.91
2023-05-05T17:23:16.969Z,23.98
2023-05-05T17:25:43.851Z,23.83
2023-05-05T17:28:11.144Z,23.43
2023-05-05T17:30:42.387Z,23.20
2023-05-05T17:33:09.284Z,22.89
2023-05-05T17:35:37.176Z,22.71
2023-05-05T17:38:04.025Z,22.74
2023-05-05T17:40:30.986Z,22.51
2023-05-05T17:42:57.818Z,22.40
2023-05-05T17:45:24.691Z,22.05
2023-05-05T17:47:51.646Z,22.05
2023-05-05T17:50:18.788Z,21.66
2023-05-05T17:52:46.556Z,21.69
2023-05-05T17:55:13.597Z,21.61
2023-05-05T17:57:40.551Z,21.52
2023-05-05T18:00:09.028Z,21.38
2023-05-05T18:02:37.251Z,21.37
2023-05-05T18:05:04.454Z,21.32
2023-05-05T18:07:33.543Z,21.23
2023-05-05T18:10:00.504Z,21.05
2023-05-05T18:12:27.421Z,20.85
2023-05-05T18:14:54.243Z,20.83
2023-05-05T18:17:21.258Z,20.71
2023-05-05T18:19:49.220Z,20.63
2023-05-05T18:22:16.989Z,20.44
2023-05-05T18:24:44.091Z,20.39
2023-05-05T18:27:10.959Z,20.18
2023-05-05T18:29:37.906Z,19.95
2023-05-05T18:32:07.932Z,19.72
2023-05-05T18:34:34.933Z,19.56
2023-05-05T18:37:02.131Z,19.43
2023-05-05T18:39:29.160Z,19.31
2023-05-05T18:41:56.200Z,19.26
2023-05-05T18:44:23.085Z,19.04
2023-05-05T18:46:49.994Z,19.12
2023-05-05T18:49:17.205Z,19.04
2023-05-05T18:51:44.089Z,18.90
2023-05-05T18:54:11.212Z,18.84
2023-05-05T18:56:38.150Z,18.68
2023-05-05T18:59:05.093Z,18.45
2023-05-05T19:01:32.959Z,18.19
2023-05-05T19:03:59.935Z,18.06
2023-05-05T19:06:27.431Z,17.90
2023-05-05T19:08:55.484Z,17.97
2023-05-05T19:11:23.379Z,18.02
2023-05-05T19:13:50.390Z,17.96
2023-05-05T19:16:17.836Z,17.89
2023-05-05T19:18:44.875Z,17.59
2023-05-05T19:21:12.166Z,17.52
2023-05-05T19:23:39.538Z,17.47
2023-05-05T19:26:06.913Z,17.34
2023-05-05T19:28:33.924Z,17.36
2023-05-05T19:31:00.916Z,17.41
2023-05-05T19:33:28.632Z,17.31
2023-05-05T19:35:55.705Z,17.28
2023-05-05T19:38:23.018Z,17.15
2023-05-05T19:40:50.429Z,17.03
2023-05-05T19:43:17.383Z,17.00
2023-05-05T19:45:44.401Z,16.79
2023-05-05T19:48:11.552Z,16.73
2023-05-05T19:50:39.429Z,16.72
2023-05-05T19:53:06.606Z,16.68
2023-05-05T19:55:33.649Z,16.75
2023-05-05T19:58:01.099Z,16.77
2023-05-05T20:00:28.087Z,16.64
2023-05-05T20:02:55.028Z,16.58
2023-05-05T20:05:22.174Z,16.36
2023-05-05T20:07:50.486Z,16.25
2023-05-05T20:10:17.972Z,16.16
2023-05-05T20:12:49.015Z,16.14
2023-05-05T20:15:19.769Z,16.12
2023-05-05T20:17:47.889Z,16.18
2023-05-05T20:20:24.003Z,16.15
2023-05-05T20:22:50.969Z,16.01
2023-05-05T20:25:17.998Z,15.91
2023-05-05T20:27:45.869Z,15.72
2023-05-05T20:30:13.272Z,15.72
2023-05-05T20:32:41.523Z,15.72
2023-05-05T20:35:09.155Z,15.67
2023-05-05T20:37:36.018Z,15.56
2023-05-05T20:40:03.881Z,15.49
2023-05-05T20:42:30.840Z,15.53
2023-05-05T20:44:57.767Z,15.39
2023-05-05T20:47:24.946Z,15.40
2023-05-05T20:49:52.513Z,15.30
2023-05-05T20:52:19.705Z,14.63
2023-05-05T20:54:46.587Z,15.18
2023-05-05T20:57:13.510Z,15.15
2023-05-05T20:59:40.421Z,15.09
2023-05-05T21:02:07.523Z,14.98
2023-05-05T21:04:34.551Z,15.04
2023-05-05T21:07:01.493Z,15.02
2023-05-05T21:09:29.001Z,14.90
2023-05-05T21:11:56.023Z,14.74
2023-05-05T21:14:23.807Z,14.77
2023-05-05T21:16:50.765Z,14.51
2023-05-05T21:19:17.719Z,14.50
2023-05-05T21:21:44.641Z,14.45
2023-05-05T21:24:13.101Z,14.49
2023-05-05T21:26:44.301Z,14.50
2023-05-05T21:29:11.648Z,14.41
2023-05-05T21:31:38.630Z,14.34
2023-05-05T21:34:05.570Z,14.29
2023-05-05T21:36:34.025Z,14.11
2023-05-05T21:39:01.229Z,14.13
2023-05-05T21:41:28.423Z,14.15
2023-05-05T21:43:55.793Z,14.19
2023-05-05T21:46:22.831Z,14.17
2023-05-05T21:48:49.806Z,14.05
2023-05-05T21:51:17.403Z,14.01
2023-05-05T21:53:44.430Z,14.03
2023-05-05T21:56:11.460Z,13.96
2023-05-05T21:58:38.417Z,13.97
2023-05-05T22:01:05.467Z,13.94
2023-05-05T22:03:34.124Z,13.76
2023-05-05T22:06:01.195Z,13.54
2023-05-05T22:08:28.097Z,13.52
2023-05-05T22:10:54.950Z,13.59
2023-05-05T22:13:21.878Z,13.60
2023-05-05T22:15:48.947Z,13.31
2023-05-05T22:18:16.037Z,13.48
2023-05-05T22:20:43.371Z,13.54
2023-05-05T22:23:10.381Z,13.38
2023-05-05T22:25:37.380Z,13.07
2023-05-05T22:28:04.791Z,13.22
2023-05-05T22:30:31.726Z,13.22
2023-05-05T22:32:58.726Z,13.23
2023-05-05T22:35:25.700Z,13.27
2023-05-05T22:37:52.983Z,13.12
2023-05-05T22:40:20.144Z,13.03
2023-05-05T22:42:47.005Z,13.05
2023-05-05T22:45:14.195Z,13.03
2023-05-05T22:47:41.869Z,13.00
2023-05-05T22:50:09.342Z,12.84
2023-05-05T22:52:36.670Z,12.95
2023-05-05T22:55:04.338Z,12.86
2023-05-05T22:57:31.458Z,12.81
2023-05-05T22:59:58.355Z,12.80
2023-05-05T23:02:26.859Z,12.74
2023-05-05T23:04:54.377Z,12.70
2023-05-05T23:07:21.263Z,12.60
2023-05-05T23:09:48.262Z,12.59
2023-05-05T23:12:15.180Z,12.56
2023-05-05T23:14:42.085Z,12.49
2023-05-05T23:17:09.348Z,12.65
2023-05-05T23:19:36.810Z,12.62
2023-05-05T23:22:04.092Z,12.59
2023-05-05T23:24:31.136Z,12.52
2023-05-05T23:26:59.730Z,12.49
2023-05-05T23:29:26.894Z,12.45
2023-05-05T23:31:54.146Z,12.26
2023-05-05T23:34:21.083Z,12.22
2023-05-05T23:36:47.992Z,12.10
2023-05-05T23:39:14.912Z,12.23
2023-05-05T23:41:41.896Z,12.04
2023-05-05T23:44:08.821Z,12.10
2023-05-05T23:46:36.109Z,12.13
2023-05-05T23:49:03.228Z,12.16
2023-05-05T23:51:30.089Z,12.14
2023-05-05T23:53:57.420Z,12.11
2023-05-05T23:56:24.802Z,12.07
2023-05-05T23:58:52.530Z,11.92
